createdAt,value
2022-12-12T00:00:41.790Z,34.03
2022-12-12T00:03:08.320Z,33.50
2022-12-12T00:05:34.934Z,34.05
2022-12-12T00:08:01.394Z,32.88
2022-12-12T00:10:28.123Z,33.05
2022-12-12T00:12:54.532Z,32.25
2022-12-12T00:15:21.338Z,34.08
2022-12-12T00:17:47.830Z,33.65
2022-12-12T00:20:14.211Z,32.97
2022-12-12T00:22:40.966Z,33.75
2022-12-12T00:25:07.429Z,37.35
2022-12-12T00:27:34.055Z,35.25
2022-12-12T00:30:00.562Z,34.35
2022-12-12T00:32:26.971Z,33.40
2022-12-12T00:34:53.416Z,32.25
2022-12-12T00:37:19.800Z,33.88
2022-12-12T00:39:46.522Z,32.85
2022-12-12T00:42:12.993Z,33.17
2022-12-12T00:44:39.844Z,32.85
2022-12-12T00:47:06.420Z,32.90
2022-12-12T00:49:32.833Z,33.67
2022-12-12T00:51:59.284Z,35.42
2022-12-12T00:54:25.770Z,34.45
2022-12-12T00:56:52.142Z,34.35
2022-12-12T00:59:19.854Z,35.15
2022-12-12T01:01:46.850Z,33.20
2022-12-12T01:04:13.449Z,32.67
2022-12-12T01:06:39.889Z,33.55
2022-12-12T01:09:06.318Z,33.17
2022-12-12T01:11:32.822Z,33.97
2022-12-12T01:13:59.291Z,34.05
2022-12-12T01:16:26.024Z,33.35
2022-12-12T01:18:52.639Z,32.97
2022-12-12T01:21:20.546Z,33.78
2022-12-12T01:23:47.355Z,33.63
2022-12-12T01:26:17.432Z,32.58
2022-12-12T01:28:45.031Z,33.53
2022-12-12T01:31:11.681Z,34.35
2022-12-12T01:33:38.699Z,33.50
2022-12-12T01:36:06.084Z,34.00
2022-12-12T01:38:32.709Z,34.58
2022-12-12T01:40:59.120Z,36.42
2022-12-12T01:43:25.726Z,33.83
2022-12-12T01:45:58.134Z,35.97
2022-12-12T01:50:57.847Z,32.70
2022-12-12T01:53:25.738Z,32.70
2022-12-12T01:55:52.461Z,33.65
2022-12-12T01:58:19.016Z,35.67
2022-12-12T02:00:45.992Z,33.35
2022-12-12T02:03:12.507Z,34.10
2022-12-12T02:05:42.552Z,34.50
2022-12-12T02:08:09.798Z,35.50
2022-12-12T02:10:36.357Z,35.30
2022-12-12T02:13:09.758Z,34.08
2022-12-12T02:15:46.358Z,33.63
2022-12-12T02:18:52.934Z,32.70
2022-12-12T02:21:23.421Z,34.45
2022-12-12T02:23:58.882Z,35.25
2022-12-12T02:26:55.967Z,35.33
2022-12-12T02:29:46.792Z,33.88
2022-12-12T02:32:22.878Z,33.95
2022-12-12T02:35:18.905Z,33.13
2022-12-12T02:38:04.012Z,35.13
2022-12-12T02:40:36.082Z,33.95
2022-12-12T02:43:11.720Z,33.83
2022-12-12T02:45:46.082Z,33.45
2022-12-12T02:48:19.142Z,34.45
2022-12-12T02:54:26.603Z,33.40
2022-12-12T02:56:58.394Z,32.72
2022-12-12T02:59:58.287Z,35.63
2022-12-12T03:02:52.667Z,34.38
2022-12-12T03:05:57.308Z,34.50
2022-12-12T03:08:55.910Z,34.63
2022-12-12T03:11:42.087Z,35.58
2022-12-12T03:14:24.054Z,35.15
2022-12-12T03:17:11.410Z,32.80
2022-12-12T03:20:15.749Z,33.40
2022-12-12T03:22:46.008Z,33.70
2022-12-12T03:25:39.108Z,35.13
2022-12-12T03:28:10.803Z,33.20
2022-12-12T03:30:41.757Z,34.05
2022-12-12T03:33:11.222Z,34.92
2022-12-12T03:35:41.751Z,34.75
2022-12-12T03:38:17.504Z,34.58
2022-12-12T03:40:47.745Z,33.55
2022-12-12T03:43:24.325Z,34.17
2022-12-12T03:46:16.273Z,32.25
2022-12-12T03:49:11.074Z,34.27
2022-12-12T03:51:40.021Z,33.33
2022-12-12T03:54:19.933Z,33.90
2022-12-12T03:56:57.344Z,34.63
2022-12-12T03:59:32.549Z,33.30
2022-12-12T04:02:06.889Z,33.80
2022-12-12T04:04:51.659Z,34.03
2022-12-12T04:07:26.761Z,34.55
2022-12-12T04:10:12.062Z,34.40
2022-12-12T04:13:03.325Z,33.15
2022-12-12T04:15:58.226Z,32.35
2022-12-12T04:18:57.156Z,32.75
2022-12-12T04:21:56.613Z,31.90
2022-12-12T04:24:46.689Z,35.15
2022-12-12T04:27:22.519Z,34.28
2022-12-12T04:29:54.383Z,34.15
2022-12-12T04:32:32.705Z,34.30
2022-12-12T04:35:06.400Z,35.45
2022-12-12T04:37:41.887Z,33.35
2022-12-12T04:40:11.432Z,32.58
2022-12-12T04:42:42.667Z,33.83
2022-12-12T04:45:14.546Z,31.35
2022-12-12T04:47:43.728Z,32.15
2022-12-12T04:50:10.665Z,32.88
2022-12-12T04:52:38.787Z,32.17
2022-12-12T04:55:15.710Z,30.55
2022-12-12T04:57:48.490Z,32.88
2022-12-12T05:00:15.387Z,33.55
2022-12-12T05:03:04.003Z,33.05
2022-12-12T05:05:44.113Z,32.85
2022-12-12T05:08:25.187Z,31.77
2022-12-12T05:10:55.841Z,31.05
2022-12-12T05:13:24.739Z,32.25
2022-12-12T05:15:53.687Z,31.63
2022-12-12T05:18:20.789Z,31.30
2022-12-12T05:20:47.222Z,33.13
2022-12-12T05:23:13.677Z,32.35
2022-12-12T05:25:40.144Z,30.42
2022-12-12T05:28:06.655Z,31.10
2022-12-12T05:30:33.558Z,32.67
2022-12-12T05:33:00.095Z,33.03
2022-12-12T05:35:27.029Z,35.08
2022-12-12T05:37:53.670Z,34.28
2022-12-12T05:40:21.023Z,32.75
2022-12-12T05:42:48.175Z,32.67
2022-12-12T05:45:15.301Z,33.10
2022-12-12T05:47:41.924Z,33.22
2022-12-12T05:50:08.608Z,32.55
2022-12-12T05:52:35.062Z,32.20
2022-12-12T05:55:01.646Z,32.40
2022-12-12T05:57:28.085Z,32.05
2022-12-12T05:59:54.568Z,31.50
2022-12-12T06:02:21.476Z,30.70
2022-12-12T06:04:47.977Z,31.40
2022-12-12T06:07:14.412Z,32.45
2022-12-12T06:09:40.877Z,31.00
2022-12-12T06:12:07.384Z,31.70
2022-12-12T06:14:33.882Z,34.83
2022-12-12T06:17:00.560Z,35.75
2022-12-12T06:19:27.065Z,34.13
2022-12-12T06:21:53.572Z,35.53
2022-12-12T06:24:20.109Z,33.42
2022-12-12T06:26:46.538Z,32.75
2022-12-12T06:29:14.811Z,32.50
2022-12-12T06:31:41.371Z,32.33
2022-12-12T06:34:07.873Z,31.33
2022-12-12T06:36:34.415Z,29.83
2022-12-12T06:39:01.579Z,31.52
2022-12-12T06:41:30.114Z,31.95
2022-12-12T06:43:56.913Z,33.47
2022-12-12T06:46:27.672Z,31.10
2022-12-12T06:48:55.898Z,31.00
2022-12-12T06:51:25.188Z,32.75
2022-12-12T06:53:52.707Z,32.58
2022-12-12T06:56:22.008Z,31.00
2022-12-12T06:58:48.692Z,33.60
2022-12-12T07:01:19.113Z,34.97
2022-12-12T07:03:46.103Z,32.45
2022-12-12T07:06:12.906Z,32.20
2022-12-12T07:08:39.452Z,32.70
2022-12-12T07:11:14.035Z,31.30
2022-12-12T07:13:40.753Z,32.40
2022-12-12T07:16:07.597Z,31.90
2022-12-12T07:18:34.991Z,32.42
2022-12-12T07:21:05.493Z,32.13
2022-12-12T07:23:32.140Z,35.22
2022-12-12T07:25:58.726Z,35.22
2022-12-12T07:28:25.379Z,35.10
2022-12-12T07:30:51.871Z,33.30
2022-12-12T07:33:18.486Z,32.72
2022-12-12T07:35:45.168Z,33.70
2022-12-12T07:38:11.949Z,35.13
2022-12-12T07:40:38.660Z,35.13
2022-12-12T07:43:05.274Z,33.30
2022-12-12T07:45:31.765Z,33.80
2022-12-12T07:47:58.494Z,44.72
2022-12-12T07:50:24.999Z,40.47
2022-12-12T07:52:51.669Z,34.65
2022-12-12T07:55:18.340Z,32.13
2022-12-12T07:57:44.857Z,31.33
2022-12-12T08:00:14.630Z,32.10
2022-12-12T08:02:41.399Z,30.50
2022-12-12T08:05:08.716Z,57.95
2022-12-12T08:07:35.412Z,70.18
2022-12-12T08:10:01.908Z,64.88
2022-12-12T08:12:32.208Z,47.22
2022-12-12T08:14:58.830Z,36.35
2022-12-12T08:17:25.658Z,35.88
2022-12-12T08:19:52.296Z,34.20
2022-12-12T08:22:19.166Z,35.08
2022-12-12T08:24:45.769Z,35.22
2022-12-12T08:27:15.476Z,35.60
2022-12-12T08:29:43.003Z,36.03
2022-12-12T08:32:09.535Z,35.30
2022-12-12T08:34:36.215Z,34.60
2022-12-12T08:37:02.682Z,34.75
2022-12-12T08:39:29.128Z,36.15
2022-12-12T08:41:55.608Z,32.95
2022-12-12T08:44:22.308Z,32.83
2022-12-12T08:46:49.120Z,36.13
2022-12-12T08:49:15.758Z,38.83
2022-12-12T08:51:42.267Z,46.00
2022-12-12T08:54:11.076Z,45.85
2022-12-12T08:56:37.622Z,41.75
2022-12-12T08:59:04.529Z,40.75
2022-12-12T09:01:31.180Z,48.17
2022-12-12T09:03:58.311Z,43.63
2022-12-12T09:06:25.963Z,40.78
2022-12-12T09:08:52.934Z,44.85
2022-12-12T09:11:20.410Z,44.15
2022-12-12T09:13:46.910Z,43.47
2022-12-12T09:16:13.537Z,43.30
2022-12-12T09:18:47.722Z,41.45
2022-12-12T09:21:15.580Z,41.70
2022-12-12T09:23:42.063Z,43.47
2022-12-12T09:26:09.475Z,42.97
2022-12-12T09:28:36.093Z,45.97
2022-12-12T09:31:10.177Z,43.78
2022-12-12T09:33:36.761Z,41.85
2022-12-12T09:36:05.644Z,42.38
2022-12-12T09:38:32.212Z,60.40
2022-12-12T09:41:02.479Z,58.28
2022-12-12T09:43:32.348Z,46.83
2022-12-12T09:46:00.217Z,46.15
2022-12-12T09:48:35.448Z,46.88
2022-12-12T09:51:01.861Z,45.97
2022-12-12T09:53:28.729Z,44.10
2022-12-12T09:56:03.328Z,41.85
2022-12-12T09:58:33.937Z,42.05
2022-12-12T10:01:12.539Z,43.33
2022-12-12T10:03:45.354Z,43.42
2022-12-12T10:09:23.378Z,40.33
2022-12-12T10:11:50.718Z,38.92
2022-12-12T10:14:37.845Z,39.80
2022-12-12T10:17:08.207Z,38.95
2022-12-12T10:19:48.736Z,37.88
2022-12-12T10:22:24.443Z,37.22
2022-12-12T10:25:08.882Z,35.90
2022-12-12T10:27:35.385Z,37.28
2022-12-12T10:30:15.393Z,37.78
2022-12-12T10:33:03.406Z,38.78
2022-12-12T10:35:38.779Z,36.60
2022-12-12T10:38:31.674Z,34.85
2022-12-12T10:45:53.082Z,35.45
2022-12-12T10:48:19.909Z,38.17
2022-12-12T10:50:52.137Z,37.63
2022-12-12T10:53:19.756Z,38.10
2022-12-12T10:56:14.010Z,37.75
2022-12-12T10:58:42.841Z,36.08
2022-12-12T11:01:24.965Z,38.63
2022-12-12T11:04:00.546Z,37.30
2022-12-12T11:06:37.442Z,38.05
2022-12-12T11:09:17.423Z,37.15
2022-12-12T11:12:15.926Z,36.65
2022-12-12T11:15:04.516Z,35.13
2022-12-12T11:17:32.282Z,34.70
2022-12-12T11:20:01.269Z,35.25
2022-12-12T11:22:32.337Z,36.15
2022-12-12T11:24:59.157Z,36.47
2022-12-12T11:27:28.894Z,36.03
2022-12-12T11:29:59.950Z,34.92
2022-12-12T11:32:29.554Z,36.67
2022-12-12T11:34:58.838Z,34.97
2022-12-12T11:37:29.095Z,37.05
2022-12-12T11:39:56.824Z,36.58
2022-12-12T11:42:26.776Z,37.78
2022-12-12T11:45:04.983Z,37.25
2022-12-12T11:47:39.054Z,39.03
2022-12-12T11:50:44.669Z,37.97
2022-12-12T11:53:11.080Z,38.50
2022-12-12T11:55:49.328Z,40.00
2022-12-12T11:58:28.394Z,39.78
2022-12-12T12:01:05.843Z,39.92
2022-12-12T12:04:09.925Z,38.38
2022-12-12T12:06:54.527Z,36.63
2022-12-12T12:09:58.230Z,35.88
2022-12-12T12:12:32.260Z,35.88
2022-12-12T12:15:14.302Z,37.22
2022-12-12T12:17:57.875Z,38.30
2022-12-12T12:20:49.164Z,34.92
2022-12-12T12:23:41.197Z,34.80
2022-12-12T12:26:23.677Z,34.22
2022-12-12T12:29:18.519Z,39.88
2022-12-12T12:31:58.488Z,35.10
2022-12-12T12:34:28.901Z,33.47
2022-12-12T12:37:13.659Z,34.42
2022-12-12T12:40:14.955Z,33.47
2022-12-12T12:43:10.535Z,30.88
2022-12-12T12:45:49.178Z,30.33
2022-12-12T12:48:25.068Z,31.02
2022-12-12T12:51:22.351Z,30.63
2022-12-12T12:54:07.892Z,31.60
2022-12-12T12:56:43.696Z,30.60
2022-12-12T12:59:16.051Z,31.80
2022-12-12T13:01:45.017Z,32.33
2022-12-12T13:04:13.199Z,31.42
2022-12-12T13:07:08.040Z,30.75
2022-12-12T13:09:54.582Z,30.95
2022-12-12T13:12:40.266Z,30.55
2022-12-12T13:15:17.337Z,31.05
2022-12-12T13:17:48.361Z,31.17
2022-12-12T13:20:20.953Z,31.15
2022-12-12T13:23:18.427Z,32.50
2022-12-12T13:25:54.764Z,32.10
2022-12-12T13:28:25.364Z,29.15
2022-12-12T13:31:33.468Z,28.73
2022-12-12T13:34:09.071Z,28.88
2022-12-12T13:36:38.404Z,29.10
2022-12-12T13:39:07.037Z,30.30
2022-12-12T13:42:08.539Z,31.90
2022-12-12T13:44:38.164Z,29.30
2022-12-12T13:47:22.843Z,29.40
2022-12-12T13:49:56.625Z,29.17
2022-12-12T13:52:28.749Z,29.33
2022-12-12T13:55:17.794Z,30.73
2022-12-12T13:57:59.935Z,30.73
2022-12-12T14:00:37.067Z,31.85
2022-12-12T14:03:20.322Z,29.75
2022-12-12T14:05:48.805Z,31.70
2022-12-12T14:08:15.291Z,30.35
2022-12-12T14:10:55.421Z,30.52
2022-12-12T14:13:21.712Z,30.63
2022-12-12T14:15:57.334Z,30.05
2022-12-12T14:18:33.984Z,30.10
2022-12-12T14:21:03.500Z,31.65
2022-12-12T14:23:35.528Z,29.08
2022-12-12T14:26:02.160Z,30.27
2022-12-12T14:28:34.328Z,30.65
2022-12-12T14:31:11.631Z,29.40
2022-12-12T14:34:10.361Z,29.75
2022-12-12T14:36:46.722Z,29.85
2022-12-12T14:39:25.415Z,30.70
2022-12-12T14:41:53.107Z,29.05
2022-12-12T14:44:37.742Z,29.70
2022-12-12T14:47:09.053Z,31.10
2022-12-12T14:49:35.514Z,30.27
2022-12-12T14:52:02.144Z,31.33
2022-12-12T14:54:28.714Z,29.73
2022-12-12T14:56:58.927Z,29.77
2022-12-12T14:59:33.569Z,31.73
2022-12-12T15:02:07.368Z,30.67
2022-12-12T15:04:38.681Z,29.85
2022-12-12T15:07:07.463Z,30.25
2022-12-12T15:09:38.900Z,31.15
2022-12-12T15:12:35.578Z,32.20
2022-12-12T15:15:02.641Z,32.22
2022-12-12T15:17:30.507Z,30.65
2022-12-12T15:20:03.235Z,32.10
2022-12-12T15:22:39.301Z,31.92
2022-12-12T15:25:26.526Z,33.25
2022-12-12T15:27:56.295Z,35.47
2022-12-12T15:30:36.758Z,33.10
2022-12-12T15:33:06.425Z,31.48
2022-12-12T15:35:32.849Z,32.03
2022-12-12T15:38:00.452Z,33.10
2022-12-12T15:40:32.726Z,34.47
2022-12-12T15:43:02.626Z,32.40
2022-12-12T15:46:00.378Z,32.65
2022-12-12T15:48:27.918Z,32.15
2022-12-12T15:50:59.190Z,32.13
2022-12-12T15:53:27.168Z,32.92
2022-12-12T15:56:12.525Z,31.88
2022-12-12T15:58:49.774Z,32.15
2022-12-12T16:01:20.994Z,34.05
2022-12-12T16:04:00.503Z,32.28
2022-12-12T16:06:32.335Z,35.97
2022-12-12T16:09:10.860Z,36.88
2022-12-12T16:11:43.363Z,35.03
2022-12-12T16:17:03.955Z,35.65
2022-12-12T16:19:57.641Z,38.08
2022-12-12T16:22:32.200Z,37.15
2022-12-12T16:25:22.838Z,36.30
2022-12-12T16:28:12.465Z,39.50
2022-12-12T16:30:40.821Z,38.33
2022-12-12T16:33:24.011Z,39.22
2022-12-12T16:35:50.380Z,38.45
2022-12-12T16:38:17.581Z,36.55
2022-12-12T16:40:45.503Z,37.38
2022-12-12T16:43:14.239Z,35.35
2022-12-12T16:45:41.035Z,37.03
2022-12-12T16:48:13.889Z,38.10
2022-12-12T16:50:40.292Z,38.65
2022-12-12T16:53:06.664Z,40.08
2022-12-12T16:55:36.052Z,39.53
2022-12-12T16:58:02.457Z,39.90
2022-12-12T17:00:28.844Z,40.30
2022-12-12T17:02:55.522Z,40.47
2022-12-12T17:05:24.266Z,38.45
2022-12-12T17:07:51.923Z,35.83
2022-12-12T17:10:19.591Z,36.75
2022-12-12T17:12:46.127Z,37.42
2022-12-12T17:15:14.653Z,36.95
2022-12-12T17:17:41.075Z,36.65
2022-12-12T17:20:07.921Z,37.75
2022-12-12T17:22:34.297Z,36.10
2022-12-12T17:25:00.662Z,40.33
2022-12-12T17:27:27.050Z,40.97
2022-12-12T17:29:53.425Z,41.90
2022-12-12T17:32:24.266Z,42.25
2022-12-12T17:34:51.157Z,38.30
2022-12-12T17:37:17.616Z,39.35
2022-12-12T17:39:44.034Z,40.88
2022-12-12T17:42:10.510Z,39.30
2022-12-12T17:44:36.921Z,37.55
2022-12-12T17:47:03.531Z,42.33
2022-12-12T17:49:30.025Z,45.15
2022-12-12T17:51:56.446Z,44.72
2022-12-12T17:54:22.888Z,44.63
2022-12-12T17:56:49.475Z,43.13
2022-12-12T17:59:15.842Z,43.03
2022-12-12T18:01:42.268Z,43.38
2022-12-12T18:04:09.078Z,42.00
2022-12-12T18:06:36.355Z,42.08
2022-12-12T18:09:03.693Z,41.40
2022-12-12T18:11:32.959Z,40.08
2022-12-12T18:14:04.486Z,42.53
2022-12-12T18:16:32.211Z,43.30
2022-12-12T18:18:59.423Z,41.60
2022-12-12T18:21:59.156Z,43.58
2022-12-12T18:24:16.058Z,43.50
2022-12-12T18:26:42.528Z,44.03
2022-12-12T18:29:09.246Z,48.00
2022-12-12T18:31:36.043Z,49.42
2022-12-12T18:34:02.578Z,47.00
2022-12-12T18:36:30.607Z,46.65
2022-12-12T18:38:58.285Z,45.65
2022-12-12T18:41:26.247Z,45.15
2022-12-12T18:43:52.993Z,45.50
2022-12-12T18:46:21.144Z,46.97
2022-12-12T18:48:48.295Z,44.95
2022-12-12T18:51:20.419Z,45.35
2022-12-12T18:53:46.943Z,45.00
2022-12-12T18:56:20.148Z,45.33
2022-12-12T18:58:46.534Z,45.05
2022-12-12T19:01:15.740Z,44.58
2022-12-12T19:03:43.472Z,43.90
2022-12-12T19:06:12.566Z,42.40
2022-12-12T19:08:40.040Z,41.28
2022-12-12T19:11:07.405Z,40.88
2022-12-12T19:13:34.039Z,33.90
2022-12-12T19:16:09.863Z,27.35
2022-12-12T19:18:36.573Z,27.48
2022-12-12T19:21:07.727Z,27.23
2022-12-12T19:23:34.396Z,28.02
2022-12-12T19:26:14.624Z,33.10
2022-12-12T19:28:41.668Z,34.88
2022-12-12T19:31:15.095Z,36.10
2022-12-12T19:33:44.327Z,39.63
2022-12-12T19:36:16.548Z,39.50
2022-12-12T19:38:43.721Z,38.45
2022-12-12T19:41:11.257Z,36.20
2022-12-12T19:43:37.771Z,36.40
2022-12-12T19:46:09.560Z,36.53
2022-12-12T19:48:36.475Z,36.25
2022-12-12T19:51:13.749Z,36.10
2022-12-12T19:53:41.877Z,36.17
2022-12-12T19:56:12.129Z,38.25
2022-12-12T19:58:39.045Z,37.30
2022-12-12T20:01:14.049Z,39.47
2022-12-12T20:03:40.681Z,43.47
2022-12-12T20:06:10.099Z,45.25
2022-12-12T20:08:37.444Z,44.58
2022-12-12T20:11:09.644Z,43.72
2022-12-12T20:13:37.138Z,49.83
2022-12-12T20:16:09.948Z,50.15
2022-12-12T20:18:36.551Z,48.97
2022-12-12T20:21:04.575Z,50.78
2022-12-12T20:23:33.177Z,56.78
2022-12-12T20:26:05.986Z,49.03
2022-12-12T20:28:32.641Z,45.45
2022-12-12T20:31:07.196Z,46.67
2022-12-12T20:33:34.405Z,46.10
2022-12-12T20:36:05.015Z,46.78
2022-12-12T20:38:33.634Z,43.08
2022-12-12T20:41:00.605Z,46.22
2022-12-12T20:43:28.322Z,47.35
2022-12-12T20:45:55.002Z,45.55
2022-12-12T20:48:21.729Z,44.80
2022-12-12T20:50:48.157Z,45.25
2022-12-12T20:53:14.561Z,43.78
2022-12-12T20:55:40.911Z,43.08
2022-12-12T20:58:07.286Z,46.50
2022-12-12T21:00:35.713Z,42.45
2022-12-12T21:03:02.175Z,42.67
2022-12-12T21:05:29.676Z,41.67
2022-12-12T21:07:56.199Z,39.75
2022-12-12T21:10:22.687Z,39.28
2022-12-12T21:12:49.077Z,39.13
2022-12-12T21:15:15.806Z,37.67
2022-12-12T21:17:42.520Z,36.75
2022-12-12T21:20:09.284Z,36.13
2022-12-12T21:22:35.709Z,37.55
2022-12-12T21:25:02.093Z,35.55
2022-12-12T21:27:29.090Z,35.65
2022-12-12T21:29:55.479Z,38.03
2022-12-12T21:32:21.956Z,37.78
2022-12-12T21:34:48.383Z,41.17
2022-12-12T21:37:14.807Z,41.13
2022-12-12T21:39:42.164Z,40.42
2022-12-12T21:42:08.549Z,39.25
2022-12-12T21:44:35.260Z,37.70
2022-12-12T21:47:01.865Z,37.33
2022-12-12T21:49:28.543Z,36.35
2022-12-12T21:52:03.705Z,37.25
2022-12-12T21:54:30.505Z,42.60
2022-12-12T21:57:00.324Z,41.05
2022-12-12T21:59:27.068Z,38.45
2022-12-12T22:01:55.254Z,33.65
2022-12-12T22:04:21.722Z,30.80
2022-12-12T22:06:48.186Z,30.88
2022-12-12T22:09:14.611Z,29.50
2022-12-12T22:11:50.518Z,30.38
2022-12-12T22:14:19.215Z,30.45
2022-12-12T22:16:45.649Z,29.60
2022-12-12T22:19:13.500Z,27.55
2022-12-12T22:21:39.934Z,29.50
2022-12-12T22:24:06.856Z,30.20
2022-12-12T22:26:36.703Z,32.20
2022-12-12T22:29:09.498Z,31.20
2022-12-12T22:31:37.645Z,39.35
2022-12-12T22:34:07.422Z,38.80
2022-12-12T22:36:37.409Z,40.05
2022-12-12T22:39:05.495Z,38.70
2022-12-12T22:41:32.536Z,36.70
2022-12-12T22:44:03.998Z,38.10
2022-12-12T22:46:30.658Z,37.17
2022-12-12T22:49:01.044Z,36.63
2022-12-12T22:51:29.901Z,35.45
2022-12-12T22:53:57.586Z,35.70
2022-12-12T22:56:24.307Z,35.67
2022-12-12T22:58:50.829Z,36.75
2022-12-12T23:01:19.413Z,35.55
2022-12-12T23:03:46.692Z,35.22
2022-12-12T23:06:14.822Z,33.42
2022-12-12T23:08:41.920Z,34.65
2022-12-12T23:11:11.467Z,35.20
2022-12-12T23:13:39.160Z,34.70
2022-12-12T23:16:07.775Z,35.88
2022-12-12T23:18:36.353Z,33.55
2022-12-12T23:21:03.269Z,32.58
2022-12-12T23:23:31.540Z,34.38
2022-12-12T23:26:03.306Z,34.25
2022-12-12T23:28:30.020Z,34.42
2022-12-12T23:30:57.064Z,33.45
2022-12-12T23:33:23.815Z,33.83
2022-12-12T23:35:50.490Z,34.47
2022-12-12T23:38:16.894Z,32.55
2022-12-12T23:40:43.612Z,31.98
2022-12-12T23:43:10.090Z,33.28
2022-12-12T23:45:37.838Z,30.42
2022-12-12T23:48:05.497Z,30.52
2022-12-12T23:50:32.538Z,29.30
2022-12-12T23:52:59.066Z,28.50
2022-12-12T23:55:25.622Z,28.33
2022-12-12T23:57:52.049Z,27.48
